sensor_id;sensor_type;location;lat;lon;timestamp;P1;durP1;ratioP1;P2;durP2;ratioP2
72797;SDS011;61084;55.816;37.036;2022-11-06T00:02:03;9.82;;;5.32;;
72797;SDS011;61084;55.816;37.036;2022-11-06T00:04:29;11.52;;;5.88;;
72797;SDS011;61084;55.816;37.036;2022-11-06T00:06:55;10.27;;;5.20;;
72797;SDS011;61084;55.816;37.036;2022-11-06T00:09:21;9.98;;;5.55;;
72797;SDS011;61084;55.816;37.036;2022-11-06T00:11:47;10.45;;;5.93;;
72797;SDS011;61084;55.816;37.036;2022-11-06T00:14:15;10.35;;;5.68;;
72797;SDS011;61084;55.816;37.036;2022-11-06T00:16:41;12.32;;;6.10;;
72797;SDS011;61084;55.816;37.036;2022-11-06T00:19:08;11.77;;;6.30;;
72797;SDS011;61084;55.816;37.036;2022-11-06T00:21:35;12.93;;;6.63;;
72797;SDS011;61084;55.816;37.036;2022-11-06T00:24:02;10.57;;;5.80;;
72797;SDS011;61084;55.816;37.036;2022-11-06T00:26:30;13.00;;;6.47;;
72797;SDS011;61084;55.816;37.036;2022-11-06T00:28:56;11.90;;;6.10;;
72797;SDS011;61084;55.816;37.036;2022-11-06T00:31:28;13.00;;;6.88;;
72797;SDS011;61084;55.816;37.036;2022-11-06T00:33:57;13.90;;;6.78;;
72797;SDS011;61084;55.816;37.036;2022-11-06T00:36:24;14.13;;;6.53;;
72797;SDS011;61084;55.816;37.036;2022-11-06T00:38:51;14.35;;;6.95;;
72797;SDS011;61084;55.816;37.036;2022-11-06T00:41:18;11.65;;;5.90;;
72797;SDS011;61084;55.816;37.036;2022-11-06T00:43:48;14.98;;;6.68;;
72797;SDS011;61084;55.816;37.036;2022-11-06T00:46:15;12.40;;;6.78;;
72797;SDS011;61084;55.816;37.036;2022-11-06T00:48:42;13.23;;;6.45;;
72797;SDS011;61084;55.816;37.036;2022-11-06T00:51:10;12.88;;;6.55;;
72797;SDS011;61084;55.816;37.036;2022-11-06T00:53:36;12.18;;;6.72;;
72797;SDS011;61084;55.816;37.036;2022-11-06T00:56:06;13.55;;;6.93;;
72797;SDS011;61084;55.816;37.036;2022-11-06T00:58:40;12.95;;;6.70;;
72797;SDS011;61084;55.816;37.036;2022-11-06T01:01:07;13.40;;;7.22;;
72797;SDS011;61084;55.816;37.036;2022-11-06T01:03:34;14.00;;;6.85;;
72797;SDS011;61084;55.816;37.036;2022-11-06T01:06:07;11.27;;;6.07;;
72797;SDS011;61084;55.816;37.036;2022-11-06T01:08:34;11.32;;;5.82;;
72797;SDS011;61084;55.816;37.036;2022-11-06T01:11:07;11.52;;;6.38;;
72797;SDS011;61084;55.816;37.036;2022-11-06T01:13:34;11.23;;;5.80;;
72797;SDS011;61084;55.816;37.036;2022-11-06T01:16:02;9.73;;;5.55;;
72797;SDS011;61084;55.816;37.036;2022-11-06T01:18:30;11.55;;;6.05;;
72797;SDS011;61084;55.816;37.036;2022-11-06T01:20:56;12.70;;;6.10;;
72797;SDS011;61084;55.816;37.036;2022-11-06T01:23:22;9.98;;;5.10;;
72797;SDS011;61084;55.816;37.036;2022-11-06T01:26:00;11.07;;;5.57;;
72797;SDS011;61084;55.816;37.036;2022-11-06T01:28:27;11.38;;;5.90;;
72797;SDS011;61084;55.816;37.036;2022-11-06T01:30:53;8.48;;;4.88;;
72797;SDS011;61084;55.816;37.036;2022-11-06T01:33:19;9.30;;;5.10;;
72797;SDS011;61084;55.816;37.036;2022-11-06T01:35:47;8.93;;;5.07;;
72797;SDS011;61084;55.816;37.036;2022-11-06T01:38:13;9.65;;;4.82;;
72797;SDS011;61084;55.816;37.036;2022-11-06T01:40:40;8.75;;;4.65;;
72797;SDS011;61084;55.816;37.036;2022-11-06T01:43:14;9.95;;;5.00;;
72797;SDS011;61084;55.816;37.036;2022-11-06T01:45:44;8.70;;;4.30;;
72797;SDS011;61084;55.816;37.036;2022-11-06T01:48:12;9.00;;;4.43;;
72797;SDS011;61084;55.816;37.036;2022-11-06T01:50:40;7.28;;;4.57;;
72797;SDS011;61084;55.816;37.036;2022-11-06T01:53:10;7.32;;;4.13;;
72797;SDS011;61084;55.816;37.036;2022-11-06T01:55:38;8.90;;;4.32;;
72797;SDS011;61084;55.816;37.036;2022-11-06T01:58:08;8.43;;;4.50;;
72797;SDS011;61084;55.816;37.036;2022-11-06T02:00:38;7.60;;;4.07;;
72797;SDS011;61084;55.816;37.036;2022-11-06T02:03:04;6.47;;;3.95;;
72797;SDS011;61084;55.816;37.036;2022-11-06T02:05:31;6.40;;;3.70;;
72797;SDS011;61084;55.816;37.036;2022-11-06T02:07:57;6.40;;;3.80;;
72797;SDS011;61084;55.816;37.036;2022-11-06T02:10:24;6.90;;;3.60;;
72797;SDS011;61084;55.816;37.036;2022-11-06T02:13:01;6.22;;;3.58;;
72797;SDS011;61084;55.816;37.036;2022-11-06T02:15:45;5.72;;;3.40;;
72797;SDS011;61084;55.816;37.036;2022-11-06T02:28:52;6.88;;;3.85;;
72797;SDS011;61084;55.816;37.036;2022-11-06T02:31:25;5.97;;;3.70;;
72797;SDS011;61084;55.816;37.036;2022-11-06T02:33:56;5.32;;;3.17;;
72797;SDS011;61084;55.816;37.036;2022-11-06T02:36:34;5.78;;;3.30;;
72797;SDS011;61084;55.816;37.036;2022-11-06T02:39:06;6.57;;;3.25;;
72797;SDS011;61084;55.816;37.036;2022-11-06T02:41:37;7.45;;;4.03;;
72797;SDS011;61084;55.816;37.036;2022-11-06T02:44:07;10.02;;;4.80;;
72797;SDS011;61084;55.816;37.036;2022-11-06T02:46:37;7.85;;;4.07;;
72797;SDS011;61084;55.816;37.036;2022-11-06T02:49:08;6.55;;;3.13;;
72797;SDS011;61084;55.816;37.036;2022-11-06T02:51:36;7.13;;;3.90;;
72797;SDS011;61084;55.816;37.036;2022-11-06T02:54:06;4.53;;;2.70;;
72797;SDS011;61084;55.816;37.036;2022-11-06T02:56:36;6.28;;;2.97;;
72797;SDS011;61084;55.816;37.036;2022-11-06T02:59:11;5.78;;;2.58;;
72797;SDS011;61084;55.816;37.036;2022-11-06T03:01:43;5.28;;;2.53;;
72797;SDS011;61084;55.816;37.036;2022-11-06T03:04:22;4.75;;;2.88;;
72797;SDS011;61084;55.816;37.036;2022-11-06T03:07:17;4.38;;;2.60;;
72797;SDS011;61084;55.816;37.036;2022-11-06T03:09:45;4.90;;;2.25;;
72797;SDS011;61084;55.816;37.036;2022-11-06T03:12:18;3.88;;;2.63;;
72797;SDS011;61084;55.816;37.036;2022-11-06T03:23:12;5.75;;;3.15;;
72797;SDS011;61084;55.816;37.036;2022-11-06T03:31:06;6.57;;;2.70;;
72797;SDS011;61084;55.816;37.036;2022-11-06T03:36:10;5.80;;;2.78;;
72797;SDS011;61084;55.816;37.036;2022-11-06T03:38:50;5.18;;;3.10;;
72797;SDS011;61084;55.816;37.036;2022-11-06T03:41:31;7.00;;;2.78;;
72797;SDS011;61084;55.816;37.036;2022-11-06T03:44:03;5.25;;;2.90;;
72797;SDS011;61084;55.816;37.036;2022-11-06T03:46:31;7.00;;;3.08;;
72797;SDS011;61084;55.816;37.036;2022-11-06T03:49:03;5.13;;;2.85;;
72797;SDS011;61084;55.816;37.036;2022-11-06T03:51:40;6.32;;;3.25;;
72797;SDS011;61084;55.816;37.036;2022-11-06T03:54:12;6.22;;;2.90;;
72797;SDS011;61084;55.816;37.036;2022-11-06T03:56:48;4.63;;;2.67;;
72797;SDS011;61084;55.816;37.036;2022-11-06T03:59:27;4.28;;;2.50;;
72797;SDS011;61084;55.816;37.036;2022-11-06T04:02:06;5.25;;;2.90;;
72797;SDS011;61084;55.816;37.036;2022-11-06T04:04:46;7.65;;;3.45;;
72797;SDS011;61084;55.816;37.036;2022-11-06T04:07:23;6.68;;;3.15;;
72797;SDS011;61084;55.816;37.036;2022-11-06T04:09:56;6.03;;;3.25;;
72797;SDS011;61084;55.816;37.036;2022-11-06T04:12:44;5.45;;;2.80;;
72797;SDS011;61084;55.816;37.036;2022-11-06T04:15:40;5.57;;;2.47;;
72797;SDS011;61084;55.816;37.036;2022-11-06T04:18:20;4.15;;;2.67;;
72797;SDS011;61084;55.816;37.036;2022-11-06T04:20:53;5.18;;;2.63;;
72797;SDS011;61084;55.816;37.036;2022-11-06T04:27:02;4.78;;;2.60;;
72797;SDS011;61084;55.816;37.036;2022-11-06T04:32:45;5.82;;;3.38;;
72797;SDS011;61084;55.816;37.036;2022-11-06T04:38:03;5.90;;;2.90;;
72797;SDS011;61084;55.816;37.036;2022-11-06T04:45:51;5.25;;;3.03;;
72797;SDS011;61084;55.816;37.036;2022-11-06T04:48:21;5.20;;;3.00;;
72797;SDS011;61084;55.816;37.036;2022-11-06T04:50:49;4.90;;;2.67;;
72797;SDS011;61084;55.816;37.036;2022-11-06T04:53:19;6.18;;;3.05;;
72797;SDS011;61084;55.816;37.036;2022-11-06T04:58:13;9.93;;;3.28;;
72797;SDS011;61084;55.816;37.036;2022-11-06T05:00:39;4.97;;;2.72;;
72797;SDS011;61084;55.816;37.036;2022-11-06T05:03:08;5.38;;;2.72;;
72797;SDS011;61084;55.816;37.036;2022-11-06T05:05:34;6.00;;;2.72;;
72797;SDS011;61084;55.816;37.036;2022-11-06T05:08:00;5.88;;;3.08;;
72797;SDS011;61084;55.816;37.036;2022-11-06T05:10:26;5.18;;;3.10;;
72797;SDS011;61084;55.816;37.036;2022-11-06T05:12:52;4.63;;;2.88;;
72797;SDS011;61084;55.816;37.036;2022-11-06T05:15:17;9.38;;;3.15;;
72797;SDS011;61084;55.816;37.036;2022-11-06T05:17:43;6.07;;;3.10;;
72797;SDS011;61084;55.816;37.036;2022-11-06T05:20:09;5.55;;;3.22;;
72797;SDS011;61084;55.816;37.036;2022-11-06T05:22:39;5.80;;;3.08;;
72797;SDS011;61084;55.816;37.036;2022-11-06T05:25:28;5.65;;;3.00;;
72797;SDS011;61084;55.816;37.036;2022-11-06T05:27:58;6.88;;;3.70;;
72797;SDS011;61084;55.816;37.036;2022-11-06T05:30:25;5.20;;;3.08;;
72797;SDS011;61084;55.816;37.036;2022-11-06T05:32:51;5.35;;;3.17;;
72797;SDS011;61084;55.816;37.036;2022-11-06T05:35:18;6.68;;;3.63;;
72797;SDS011;61084;55.816;37.036;2022-11-06T05:37:44;6.68;;;3.60;;
72797;SDS011;61084;55.816;37.036;2022-11-06T05:40:11;5.85;;;3.15;;
72797;SDS011;61084;55.816;37.036;2022-11-06T05:42:41;6.20;;;3.30;;
72797;SDS011;61084;55.816;37.036;2022-11-06T05:45:08;6.25;;;3.40;;
72797;SDS011;61084;55.816;37.036;2022-11-06T05:47:35;6.00;;;3.13;;
72797;SDS011;61084;55.816;37.036;2022-11-06T05:50:04;6.72;;;3.58;;
72797;SDS011;61084;55.816;37.036;2022-11-06T05:52:30;8.57;;;3.70;;
72797;SDS011;61084;55.816;37.036;2022-11-06T05:54:56;5.60;;;3.13;;
72797;SDS011;61084;55.816;37.036;2022-11-06T05:57:22;6.45;;;3.53;;
72797;SDS011;61084;55.816;37.036;2022-11-06T05:59:47;7.75;;;3.60;;
72797;SDS011;61084;55.816;37.036;2022-11-06T06:02:13;6.07;;;3.70;;
72797;SDS011;61084;55.816;37.036;2022-11-06T06:04:39;6.47;;;3.17;;
72797;SDS011;61084;55.816;37.036;2022-11-06T06:07:05;6.57;;;3.40;;
72797;SDS011;61084;55.816;37.036;2022-11-06T06:09:31;8.07;;;3.88;;
72797;SDS011;61084;55.816;37.036;2022-11-06T06:11:57;7.90;;;3.63;;
72797;SDS011;61084;55.816;37.036;2022-11-06T06:14:23;7.72;;;3.80;;
72797;SDS011;61084;55.816;37.036;2022-11-06T06:16:48;7.25;;;3.95;;
72797;SDS011;61084;55.816;37.036;2022-11-06T06:19:14;7.32;;;3.55;;
72797;SDS011;61084;55.816;37.036;2022-11-06T06:21:40;7.03;;;3.47;;
72797;SDS011;61084;55.816;37.036;2022-11-06T06:24:06;7.13;;;3.90;;
72797;SDS011;61084;55.816;37.036;2022-11-06T06:26:32;8.63;;;3.88;;
72797;SDS011;61084;55.816;37.036;2022-11-06T06:28:58;6.93;;;3.92;;
72797;SDS011;61084;55.816;37.036;2022-11-06T06:31:24;8.05;;;3.72;;
72797;SDS011;61084;55.816;37.036;2022-11-06T06:33:49;8.15;;;4.28;;
72797;SDS011;61084;55.816;37.036;2022-11-06T06:36:15;8.25;;;4.15;;
72797;SDS011;61084;55.816;37.036;2022-11-06T06:38:41;10.40;;;4.03;;
72797;SDS011;61084;55.816;37.036;2022-11-06T06:41:07;10.43;;;4.55;;
72797;SDS011;61084;55.816;37.036;2022-11-06T06:43:33;10.75;;;5.00;;
72797;SDS011;61084;55.816;37.036;2022-11-06T06:46:00;10.15;;;4.60;;
72797;SDS011;61084;55.816;37.036;2022-11-06T06:48:27;8.80;;;4.45;;
72797;SDS011;61084;55.816;37.036;2022-11-06T06:50:59;9.40;;;3.90;;
72797;SDS011;61084;55.816;37.036;2022-11-06T06:53:26;12.35;;;4.93;;
72797;SDS011;61084;55.816;37.036;2022-11-06T06:55:52;12.60;;;5.63;;
72797;SDS011;61084;55.816;37.036;2022-11-06T06:58:18;15.68;;;5.93;;
72797;SDS011;61084;55.816;37.036;2022-11-06T07:00:44;15.15;;;5.30;;
72797;SDS011;61084;55.816;37.036;2022-11-06T07:03:11;14.82;;;5.80;;
72797;SDS011;61084;55.816;37.036;2022-11-06T07:05:37;12.73;;;5.60;;
72797;SDS011;61084;55.816;37.036;2022-11-06T07:08:04;14.68;;;5.85;;
72797;SDS011;61084;55.816;37.036;2022-11-06T07:10:30;15.68;;;6.90;;
72797;SDS011;61084;55.816;37.036;2022-11-06T07:13:03;14.88;;;6.32;;
72797;SDS011;61084;55.816;37.036;2022-11-06T07:15:30;14.00;;;5.90;;
72797;SDS011;61084;55.816;37.036;2022-11-06T07:18:03;16.05;;;5.78;;
72797;SDS011;61084;55.816;37.036;2022-11-06T07:20:30;15.00;;;6.10;;
72797;SDS011;61084;55.816;37.036;2022-11-06T07:22:57;15.90;;;7.00;;
72797;SDS011;61084;55.816;37.036;2022-11-06T07:25:24;14.05;;;6.10;;
72797;SDS011;61084;55.816;37.036;2022-11-06T07:27:50;15.23;;;6.40;;
72797;SDS011;61084;55.816;37.036;2022-11-06T07:30:16;16.90;;;7.20;;
72797;SDS011;61084;55.816;37.036;2022-11-06T07:32:42;20.10;;;7.57;;
72797;SDS011;61084;55.816;37.036;2022-11-06T07:35:08;20.50;;;7.35;;
72797;SDS011;61084;55.816;37.036;2022-11-06T07:37:34;19.15;;;8.00;;
72797;SDS011;61084;55.816;37.036;2022-11-06T07:40:00;18.80;;;7.82;;
72797;SDS011;61084;55.816;37.036;2022-11-06T07:42:28;17.63;;;7.28;;
72797;SDS011;61084;55.816;37.036;2022-11-06T07:44:59;18.20;;;7.90;;
72797;SDS011;61084;55.816;37.036;2022-11-06T07:47:25;19.58;;;8.05;;
72797;SDS011;61084;55.816;37.036;2022-11-06T07:49:52;17.25;;;8.18;;
72797;SDS011;61084;55.816;37.036;2022-11-06T07:52:17;21.95;;;7.57;;
72797;SDS011;61084;55.816;37.036;2022-11-06T07:54:43;20.55;;;7.68;;
72797;SDS011;61084;55.816;37.036;2022-11-06T07:57:09;20.35;;;7.65;;
72797;SDS011;61084;55.816;37.036;2022-11-06T07:59:35;18.83;;;8.27;;
72797;SDS011;61084;55.816;37.036;2022-11-06T08:02:00;24.42;;;8.68;;
72797;SDS011;61084;55.816;37.036;2022-11-06T08:04:26;19.42;;;8.48;;
72797;SDS011;61084;55.816;37.036;2022-11-06T08:06:52;21.38;;;8.10;;
72797;SDS011;61084;55.816;37.036;2022-11-06T08:09:18;20.10;;;8.30;;
72797;SDS011;61084;55.816;37.036;2022-11-06T08:11:43;22.23;;;8.88;;
72797;SDS011;61084;55.816;37.036;2022-11-06T08:14:09;21.75;;;8.20;;
72797;SDS011;61084;55.816;37.036;2022-11-06T08:16:36;20.67;;;8.23;;
72797;SDS011;61084;55.816;37.036;2022-11-06T08:19:01;23.35;;;8.90;;
72797;SDS011;61084;55.816;37.036;2022-11-06T08:21:27;25.13;;;8.00;;
72797;SDS011;61084;55.816;37.036;2022-11-06T08:23:53;22.20;;;8.73;;
72797;SDS011;61084;55.816;37.036;2022-11-06T08:26:19;21.60;;;8.98;;
72797;SDS011;61084;55.816;37.036;2022-11-06T08:28:44;19.27;;;8.45;;
72797;SDS011;61084;55.816;37.036;2022-11-06T08:31:10;18.83;;;7.70;;
72797;SDS011;61084;55.816;37.036;2022-11-06T08:33:37;21.73;;;8.77;;
72797;SDS011;61084;55.816;37.036;2022-11-06T08:36:04;18.63;;;8.25;;
72797;SDS011;61084;55.816;37.036;2022-11-06T08:38:30;19.70;;;8.45;;
72797;SDS011;61084;55.816;37.036;2022-11-06T08:40:56;24.48;;;9.75;;
72797;SDS011;61084;55.816;37.036;2022-11-06T08:43:22;19.75;;;8.10;;
72797;SDS011;61084;55.816;37.036;2022-11-06T08:45:51;20.85;;;8.20;;
72797;SDS011;61084;55.816;37.036;2022-11-06T08:48:17;19.58;;;8.43;;
72797;SDS011;61084;55.816;37.036;2022-11-06T08:50:43;20.70;;;9.27;;
72797;SDS011;61084;55.816;37.036;2022-11-06T08:53:09;22.92;;;8.88;;
72797;SDS011;61084;55.816;37.036;2022-11-06T08:55:36;17.13;;;8.05;;
72797;SDS011;61084;55.816;37.036;2022-11-06T08:58:04;22.38;;;9.05;;
72797;SDS011;61084;55.816;37.036;2022-11-06T09:00:30;19.02;;;8.55;;
72797;SDS011;61084;55.816;37.036;2022-11-06T09:02:57;22.98;;;8.75;;
72797;SDS011;61084;55.816;37.036;2022-11-06T09:07:49;17.35;;;7.57;;
72797;SDS011;61084;55.816;37.036;2022-11-06T09:10:15;22.30;;;8.40;;
72797;SDS011;61084;55.816;37.036;2022-11-06T09:12:41;16.80;;;7.70;;
72797;SDS011;61084;55.816;37.036;2022-11-06T09:15:08;19.20;;;7.40;;
72797;SDS011;61084;55.816;37.036;2022-11-06T09:17:40;17.48;;;7.60;;
72797;SDS011;61084;55.816;37.036;2022-11-06T09:20:07;14.93;;;6.80;;
72797;SDS011;61084;55.816;37.036;2022-11-06T09:22:33;18.25;;;7.45;;
72797;SDS011;61084;55.816;37.036;2022-11-06T09:24:59;16.42;;;7.05;;
72797;SDS011;61084;55.816;37.036;2022-11-06T09:27:24;17.83;;;7.30;;
72797;SDS011;61084;55.816;37.036;2022-11-06T09:29:50;14.20;;;6.75;;
72797;SDS011;61084;55.816;37.036;2022-11-06T09:32:16;15.23;;;6.35;;
72797;SDS011;61084;55.816;37.036;2022-11-06T09:34:42;14.18;;;7.13;;
72797;SDS011;61084;55.816;37.036;2022-11-06T09:40:33;16.20;;;6.70;;
72797;SDS011;61084;55.816;37.036;2022-11-06T09:45:49;13.50;;;6.13;;
72797;SDS011;61084;55.816;37.036;2022-11-06T09:48:24;14.68;;;6.50;;
72797;SDS011;61084;55.816;37.036;2022-11-06T09:51:13;14.90;;;6.50;;
72797;SDS011;61084;55.816;37.036;2022-11-06T09:54:04;11.32;;;5.55;;
72797;SDS011;61084;55.816;37.036;2022-11-06T09:56:37;13.23;;;5.75;;
72797;SDS011;61084;55.816;37.036;2022-11-06T09:59:06;13.85;;;6.45;;
72797;SDS011;61084;55.816;37.036;2022-11-06T10:01:39;12.43;;;6.22;;
72797;SDS011;61084;55.816;37.036;2022-11-06T10:04:11;14.43;;;5.60;;
72797;SDS011;61084;55.816;37.036;2022-11-06T10:06:51;18.75;;;6.50;;
72797;SDS011;61084;55.816;37.036;2022-11-06T10:09:17;13.80;;;6.10;;
72797;SDS011;61084;55.816;37.036;2022-11-06T10:20:17;15.25;;;6.53;;
72797;SDS011;61084;55.816;37.036;2022-11-06T10:22:48;12.18;;;6.32;;
72797;SDS011;61084;55.816;37.036;2022-11-06T10:30:24;11.93;;;5.70;;
72797;SDS011;61084;55.816;37.036;2022-11-06T10:33:10;13.88;;;6.78;;
72797;SDS011;61084;55.816;37.036;2022-11-06T10:38:21;12.75;;;6.15;;
72797;SDS011;61084;55.816;37.036;2022-11-06T10:40:50;13.25;;;6.50;;
72797;SDS011;61084;55.816;37.036;2022-11-06T10:45:51;16.27;;;7.45;;
72797;SDS011;61084;55.816;37.036;2022-11-06T10:48:39;15.55;;;6.90;;
72797;SDS011;61084;55.816;37.036;2022-11-06T10:54:34;14.18;;;6.47;;
72797;SDS011;61084;55.816;37.036;2022-11-06T10:59:50;14.55;;;7.18;;
72797;SDS011;61084;55.816;37.036;2022-11-06T11:02:30;14.85;;;6.80;;
72797;SDS011;61084;55.816;37.036;2022-11-06T11:04:58;15.23;;;6.55;;
72797;SDS011;61084;55.816;37.036;2022-11-06T11:07:28;13.18;;;6.97;;
72797;SDS011;61084;55.816;37.036;2022-11-06T11:09:58;12.95;;;6.55;;
72797;SDS011;61084;55.816;37.036;2022-11-06T11:12:45;11.68;;;6.07;;
72797;SDS011;61084;55.816;37.036;2022-11-06T11:15:11;16.60;;;7.10;;
72797;SDS011;61084;55.816;37.036;2022-11-06T11:17:38;15.98;;;6.50;;
72797;SDS011;61084;55.816;37.036;2022-11-06T11:25:47;12.52;;;5.90;;
72797;SDS011;61084;55.816;37.036;2022-11-06T11:28:49;13.25;;;6.57;;
72797;SDS011;61084;55.816;37.036;2022-11-06T11:31:12;13.02;;;6.35;;
72797;SDS011;61084;55.816;37.036;2022-11-06T11:33:41;13.27;;;6.85;;
72797;SDS011;61084;55.816;37.036;2022-11-06T11:36:14;9.82;;;5.93;;
72797;SDS011;61084;55.816;37.036;2022-11-06T11:38:40;12.63;;;6.68;;
72797;SDS011;61084;55.816;37.036;2022-11-06T11:46:30;14.23;;;6.28;;
72797;SDS011;61084;55.816;37.036;2022-11-06T11:48:57;18.23;;;6.50;;
72797;SDS011;61084;55.816;37.036;2022-11-06T11:51:28;14.82;;;7.10;;
72797;SDS011;61084;55.816;37.036;2022-11-06T11:56:34;12.13;;;5.75;;
72797;SDS011;61084;55.816;37.036;2022-11-06T11:59:33;11.88;;;5.72;;
72797;SDS011;61084;55.816;37.036;2022-11-06T12:02:11;11.55;;;5.82;;
72797;SDS011;61084;55.816;37.036;2022-11-06T12:04:42;17.85;;;6.60;;
72797;SDS011;61084;55.816;37.036;2022-11-06T12:07:22;10.48;;;5.78;;
72797;SDS011;61084;55.816;37.036;2022-11-06T12:10:00;12.48;;;6.13;;
72797;SDS011;61084;55.816;37.036;2022-11-06T12:12:29;13.27;;;6.47;;
72797;SDS011;61084;55.816;37.036;2022-11-06T12:17:34;16.42;;;6.00;;
72797;SDS011;61084;55.816;37.036;2022-11-06T12:20:05;13.02;;;5.85;;
72797;SDS011;61084;55.816;37.036;2022-11-06T12:27:36;11.35;;;5.53;;
72797;SDS011;61084;55.816;37.036;2022-11-06T12:30:13;14.88;;;6.45;;
72797;SDS011;61084;55.816;37.036;2022-11-06T12:40:40;16.98;;;7.03;;
72797;SDS011;61084;55.816;37.036;2022-11-06T12:43:12;14.30;;;6.60;;
72797;SDS011;61084;55.816;37.036;2022-11-06T12:51:11;17.77;;;6.60;;
72797;SDS011;61084;55.816;37.036;2022-11-06T12:57:04;16.20;;;6.82;;
72797;SDS011;61084;55.816;37.036;2022-11-06T13:05:13;20.67;;;6.65;;
72797;SDS011;61084;55.816;37.036;2022-11-06T13:18:30;15.75;;;6.43;;
72797;SDS011;61084;55.816;37.036;2022-11-06T13:21:04;12.35;;;6.45;;
72797;SDS011;61084;55.816;37.036;2022-11-06T13:26:48;15.48;;;6.05;;
72797;SDS011;61084;55.816;37.036;2022-11-06T13:29:11;13.65;;;6.07;;
72797;SDS011;61084;55.816;37.036;2022-11-06T13:31:45;10.75;;;5.38;;
72797;SDS011;61084;55.816;37.036;2022-11-06T13:34:22;13.20;;;5.88;;
72797;SDS011;61084;55.816;37.036;2022-11-06T13:36:52;14.88;;;5.55;;
72797;SDS011;61084;55.816;37.036;2022-11-06T13:39:21;13.95;;;6.00;;
72797;SDS011;61084;55.816;37.036;2022-11-06T13:41:52;13.25;;;5.60;;
72797;SDS011;61084;55.816;37.036;2022-11-06T13:44:20;12.38;;;5.38;;
72797;SDS011;61084;55.816;37.036;2022-11-06T13:46:53;12.93;;;5.82;;
72797;SDS011;61084;55.816;37.036;2022-11-06T13:52:44;16.70;;;5.53;;
72797;SDS011;61084;55.816;37.036;2022-11-06T13:55:24;13.05;;;6.05;;
72797;SDS011;61084;55.816;37.036;2022-11-06T14:01:05;14.95;;;5.03;;
72797;SDS011;61084;55.816;37.036;2022-11-06T14:06:41;10.50;;;4.43;;
72797;SDS011;61084;55.816;37.036;2022-11-06T14:09:09;12.77;;;4.15;;
72797;SDS011;61084;55.816;37.036;2022-11-06T14:11:41;8.73;;;4.53;;
72797;SDS011;61084;55.816;37.036;2022-11-06T14:14:13;15.40;;;4.65;;
72797;SDS011;61084;55.816;37.036;2022-11-06T14:24:52;12.45;;;5.60;;
72797;SDS011;61084;55.816;37.036;2022-11-06T14:32:35;9.27;;;4.82;;
72797;SDS011;61084;55.816;37.036;2022-11-06T14:40:34;10.93;;;3.95;;
72797;SDS011;61084;55.816;37.036;2022-11-06T14:43:37;8.32;;;4.50;;
72797;SDS011;61084;55.816;37.036;2022-11-06T14:46:01;7.55;;;4.22;;
72797;SDS011;61084;55.816;37.036;2022-11-06T14:48:31;7.38;;;3.92;;
72797;SDS011;61084;55.816;37.036;2022-11-06T14:51:01;7.38;;;4.10;;
72797;SDS011;61084;55.816;37.036;2022-11-06T14:54:04;8.65;;;4.30;;
72797;SDS011;61084;55.816;37.036;2022-11-06T14:56:24;11.50;;;3.90;;
72797;SDS011;61084;55.816;37.036;2022-11-06T14:58:54;8.80;;;4.65;;
72797;SDS011;61084;55.816;37.036;2022-11-06T15:01:26;10.20;;;4.53;;
72797;SDS011;61084;55.816;37.036;2022-11-06T15:03:55;8.65;;;4.20;;
72797;SDS011;61084;55.816;37.036;2022-11-06T15:08:54;7.88;;;3.95;;
72797;SDS011;61084;55.816;37.036;2022-11-06T15:13:55;8.55;;;4.35;;
72797;SDS011;61084;55.816;37.036;2022-11-06T15:16:46;9.18;;;4.72;;
72797;SDS011;61084;55.816;37.036;2022-11-06T15:19:20;10.98;;;4.60;;
72797;SDS011;61084;55.816;37.036;2022-11-06T15:27:23;10.38;;;5.30;;
72797;SDS011;61084;55.816;37.036;2022-11-06T15:29:54;10.20;;;4.60;;
72797;SDS011;61084;55.816;37.036;2022-11-06T15:32:25;11.20;;;4.93;;
72797;SDS011;61084;55.816;37.036;2022-11-06T15:37:36;10.77;;;5.22;;
72797;SDS011;61084;55.816;37.036;2022-11-06T15:40:06;11.98;;;5.00;;
72797;SDS011;61084;55.816;37.036;2022-11-06T15:42:51;9.30;;;4.80;;
72797;SDS011;61084;55.816;37.036;2022-11-06T15:45:19;10.57;;;5.68;;
72797;SDS011;61084;55.816;37.036;2022-11-06T15:47:51;8.43;;;4.78;;
72797;SDS011;61084;55.816;37.036;2022-11-06T15:50:32;12.02;;;4.97;;
72797;SDS011;61084;55.816;37.036;2022-11-06T15:58:28;11.30;;;5.57;;
72797;SDS011;61084;55.816;37.036;2022-11-06T16:00:56;11.73;;;5.22;;
72797;SDS011;61084;55.816;37.036;2022-11-06T16:03:23;10.93;;;5.38;;
72797;SDS011;61084;55.816;37.036;2022-11-06T16:05:52;17.05;;;6.53;;
72797;SDS011;61084;55.816;37.036;2022-11-06T16:08:19;13.20;;;6.30;;
72797;SDS011;61084;55.816;37.036;2022-11-06T16:10:47;12.70;;;5.82;;
72797;SDS011;61084;55.816;37.036;2022-11-06T16:13:17;11.18;;;5.25;;
72797;SDS011;61084;55.816;37.036;2022-11-06T16:15:54;12.75;;;5.65;;
72797;SDS011;61084;55.816;37.036;2022-11-06T16:23:43;12.60;;;5.15;;
72797;SDS011;61084;55.816;37.036;2022-11-06T16:26:13;10.95;;;5.75;;
72797;SDS011;61084;55.816;37.036;2022-11-06T16:28:41;11.15;;;5.57;;
72797;SDS011;61084;55.816;37.036;2022-11-06T16:31:16;13.00;;;5.63;;
72797;SDS011;61084;55.816;37.036;2022-11-06T16:34:04;10.50;;;5.25;;
72797;SDS011;61084;55.816;37.036;2022-11-06T16:36:51;10.35;;;5.22;;
72797;SDS011;61084;55.816;37.036;2022-11-06T16:45:17;10.93;;;5.10;;
72797;SDS011;61084;55.816;37.036;2022-11-06T16:53:09;11.27;;;4.97;;
72797;SDS011;61084;55.816;37.036;2022-11-06T16:55:35;9.82;;;5.30;;
72797;SDS011;61084;55.816;37.036;2022-11-06T16:58:01;11.05;;;5.43;;
72797;SDS011;61084;55.816;37.036;2022-11-06T17:00:31;12.88;;;5.25;;
72797;SDS011;61084;55.816;37.036;2022-11-06T17:03:01;11.35;;;5.40;;
72797;SDS011;61084;55.816;37.036;2022-11-06T17:05:32;12.65;;;5.68;;
72797;SDS011;61084;55.816;37.036;2022-11-06T17:08:16;11.75;;;5.28;;
72797;SDS011;61084;55.816;37.036;2022-11-06T17:10:56;12.35;;;5.45;;
72797;SDS011;61084;55.816;37.036;2022-11-06T17:13:27;9.32;;;4.90;;
72797;SDS011;61084;55.816;37.036;2022-11-06T17:18:27;12.15;;;5.38;;
72797;SDS011;61084;55.816;37.036;2022-11-06T17:21:01;13.20;;;5.35;;
72797;SDS011;61084;55.816;37.036;2022-11-06T17:23:32;11.30;;;5.30;;
72797;SDS011;61084;55.816;37.036;2022-11-06T17:26:00;12.23;;;5.47;;
72797;SDS011;61084;55.816;37.036;2022-11-06T17:28:29;12.30;;;5.35;;
72797;SDS011;61084;55.816;37.036;2022-11-06T17:30:55;14.35;;;5.68;;
72797;SDS011;61084;55.816;37.036;2022-11-06T17:33:21;14.52;;;6.25;;
72797;SDS011;61084;55.816;37.036;2022-11-06T17:35:47;12.32;;;5.72;;
72797;SDS011;61084;55.816;37.036;2022-11-06T17:38:14;12.60;;;6.03;;
72797;SDS011;61084;55.816;37.036;2022-11-06T17:40:41;12.23;;;5.78;;
72797;SDS011;61084;55.816;37.036;2022-11-06T17:43:09;15.65;;;6.88;;
72797;SDS011;61084;55.816;37.036;2022-11-06T17:45:35;14.30;;;5.85;;
72797;SDS011;61084;55.816;37.036;2022-11-06T17:48:03;13.70;;;6.47;;
72797;SDS011;61084;55.816;37.036;2022-11-06T17:50:30;12.73;;;5.93;;
72797;SDS011;61084;55.816;37.036;2022-11-06T17:53:15;13.75;;;5.60;;
72797;SDS011;61084;55.816;37.036;2022-11-06T17:55:41;14.18;;;6.55;;
72797;SDS011;61084;55.816;37.036;2022-11-06T17:58:07;15.27;;;6.95;;
72797;SDS011;61084;55.816;37.036;2022-11-06T18:00:33;16.98;;;6.78;;
72797;SDS011;61084;55.816;37.036;2022-11-06T18:05:26;14.00;;;5.72;;
72797;SDS011;61084;55.816;37.036;2022-11-06T18:07:52;14.05;;;6.20;;